Time;durP1;ratioP1;P1;durP2;ratioP2;P2;SDS_P1;SDS_P2;PMS_P1;PMS_P2;Temp;Humidity;BMP_temperature;BMP_pressure;BME280_temperature;BME280_humidity;BME280_pressure;Samples;Min_cycle;Max_cycle;Signal;HPM_P1;HPM_P2
2022/03/24 00:00:17;;;;;;;;;;;;;;;18.49;54.74;99783.63;2089430;28;19924;-56
2022/03/24 00:01:18;;;;;;;;;;;;;;;18.49;54.88;99772.03;2092599;28;19924;-50
2022/03/24 00:02:19;;;;;;;;;;;;;;;18.48;54.81;99776.59;2091158;28;19927;-54
2022/03/24 00:03:20;;;;;;;;;;;;;;;18.49;54.96;99774.72;2093019;28;19920;-52
2022/03/24 00:04:21;;;;;;;;;;;;;;;18.50;54.84;99773.72;2091438;28;19924;-56
2022/03/24 00:05:24;;;;;;;;;;;;;;;18.48;55.08;99786.50;2092307;28;19920;-56
2022/03/24 00:06:24;;;;;;;;;;;;;;;18.48;54.92;99784.63;2092241;28;19932;-55
2022/03/24 00:07:26;;;;;;;;;;;;;;;18.47;54.78;99780.28;2090230;28;19920;-54
2022/03/24 00:08:26;;;;;;;;;;;;;;;18.47;54.90;99780.28;2089667;28;19939;-58
2022/03/24 00:09:28;;;;;;;;;;;;;;;18.46;54.90;99783.97;2092901;28;19960;-53
2022/03/24 00:10:30;;;;;;;;;;;;;;;18.46;54.84;99783.97;2091555;28;19920;-57
2022/03/24 00:11:31;;;;;;;;;;;;;;;18.46;54.82;99783.97;2092828;28;20346;-54
2022/03/24 00:12:34;;;;;;;;;;;;;;;18.46;54.69;99783.97;2090602;28;19924;-56
2022/03/24 00:13:36;;;;;;;;;;;;;;;18.44;54.85;99783.34;2092587;28;19921;-57
2022/03/24 00:14:38;;;;;;;;;;;;;;;18.44;54.95;99786.00;2091747;28;19928;-58
2022/03/24 00:15:39;;;;;;;;;;;;;;;18.44;54.97;99769.91;2090945;28;20542;-55
2022/03/24 00:16:40;;;;;;;;;;;;;;;18.44;54.68;99777.97;2089243;28;19936;-51
2022/03/24 00:17:42;;;;;;;;;;;;;;;18.42;54.75;99777.28;2093393;28;19927;-56
2022/03/24 00:18:43;;;;;;;;;;;;;;;18.43;54.98;99778.94;2088793;28;20011;-57
2022/03/24 00:19:44;;;;;;;;;;;;;;;18.42;54.68;99766.53;2092910;28;19927;-53
2022/03/24 00:20:46;;;;;;;;;;;;;;;18.43;54.88;99772.75;2091767;28;19924;-55
2022/03/24 00:21:48;;;;;;;;;;;;;;;18.41;54.85;99775.59;2092255;28;20359;-55
2022/03/24 00:22:49;;;;;;;;;;;;;;;18.41;54.98;99777.44;2093045;28;20010;-53
2022/03/24 00:23:50;;;;;;;;;;;;;;;18.42;54.60;99773.78;2093402;28;19931;-51
2022/03/24 00:24:54;;;;;;;;;;;;;;;18.42;54.70;99776.44;2091552;28;19928;-58
2022/03/24 00:25:55;;;;;;;;;;;;;;;18.40;54.85;99781.16;2091390;28;19924;-50
2022/03/24 00:26:56;;;;;;;;;;;;;;;18.39;54.93;99766.91;2082240;28;19936;-56
2022/03/24 00:27:57;;;;;;;;;;;;;;;18.38;54.81;99770.56;2082525;28;19971;-52
2022/03/24 00:28:58;;;;;;;;;;;;;;;18.39;54.98;99774.94;2091462;28;20046;-53
2022/03/24 00:30:00;;;;;;;;;;;;;;;18.39;54.77;99766.91;2092009;28;19924;-54
2022/03/24 00:31:01;;;;;;;;;;;;;;;18.39;54.99;99772.25;2090528;28;20268;-54
2022/03/24 00:32:02;;;;;;;;;;;;;;;18.38;54.84;99770.56;2090394;28;19927;-50
2022/03/24 00:33:03;;;;;;;;;;;;;;;18.37;54.94;99768.91;2091597;28;20016;-54
2022/03/24 00:34:05;;;;;;;;;;;;;;;18.38;55.00;99770.56;2092421;28;19931;-51
2022/03/24 00:35:08;;;;;;;;;;;;;;;18.36;54.93;99764.56;2093727;28;19924;-55
2022/03/24 00:36:10;;;;;;;;;;;;;;;18.36;54.82;99764.56;2093017;28;19924;-56
2022/03/24 00:37:12;;;;;;;;;;;;;;;18.36;55.00;99769.06;2092504;28;19999;-53
2022/03/24 00:38:13;;;;;;;;;;;;;;;18.34;54.97;99766.56;2090279;28;19928;-53
2022/03/24 00:39:14;;;;;;;;;;;;;;;18.35;54.86;99760.19;2089699;28;19969;-54
2022/03/24 00:40:16;;;;;;;;;;;;;;;18.35;54.99;99762.03;2092456;28;19959;-56
2022/03/24 00:41:18;;;;;;;;;;;;;;;18.33;54.86;99750.63;2091541;28;20002;-57
2022/03/24 00:42:21;;;;;;;;;;;;;;;18.33;54.63;99762.22;2091148;28;19921;-55
2022/03/24 00:43:22;;;;;;;;;;;;;;;18.33;54.95;99762.22;2091991;28;20340;-53
2022/03/24 00:44:24;;;;;;;;;;;;;;;18.33;54.71;99756.00;2091985;28;19924;-56
2022/03/24 00:45:26;;;;;;;;;;;;;;;18.32;54.87;99755.16;2090431;28;19927;-55
2022/03/24 00:46:28;;;;;;;;;;;;;;;18.33;54.94;99751.47;2089092;28;19924;-56
2022/03/24 00:47:29;;;;;;;;;;;;;;;18.32;54.98;99749.78;2092012;28;19996;-51
2022/03/24 00:48:30;;;;;;;;;;;;;;;18.30;54.58;99752.66;2091317;28;19932;-55
2022/03/24 00:49:31;;;;;;;;;;;;;;;18.30;54.82;99754.50;2089297;28;19929;-56
2022/03/24 00:50:33;;;;;;;;;;;;;;;18.28;55.12;99754.69;2090399;28;19932;-56
2022/03/24 00:51:35;;;;;;;;;;;;;;;18.28;54.87;99749.31;2092269;28;19931;-52
2022/03/24 00:52:41;;;;;;;;;;;;;;;18.27;55.04;99747.63;2090617;28;19959;-51
2022/03/24 00:53:41;;;;;;;;;;;;;;;18.27;55.08;99752.97;2090573;28;19920;-53
2022/03/24 00:54:43;;;;;;;;;;;;;;;18.28;54.83;99751.16;2090771;28;19967;-58
2022/03/24 00:55:44;;;;;;;;;;;;;;;18.28;54.73;99753.84;2091166;28;20378;-54
2022/03/24 00:56:45;;;;;;;;;;;;;;;18.26;54.98;99745.13;2091028;28;19921;-56
2022/03/24 00:57:49;;;;;;;;;;;;;;;18.27;54.91;99747.63;2093371;28;19924;-55
2022/03/24 00:58:50;;;;;;;;;;;;;;;18.25;54.87;99746.97;2091215;28;19924;-53
2022/03/24 00:59:51;;;;;;;;;;;;;;;18.24;54.99;99753.34;2091413;28;20015;-56
2022/03/24 01:00:54;;;;;;;;;;;;;;;18.25;54.88;99746.16;2090225;28;20367;-53
2022/03/24 01:01:56;;;;;;;;;;;;;;;18.25;55.05;99743.47;2088755;28;20011;-55
2022/03/24 01:02:58;;;;;;;;;;;;;;;18.24;54.84;99741.75;2090875;28;20003;-56
2022/03/24 01:03:59;;;;;;;;;;;;;;;18.23;54.71;99745.47;2092232;28;19924;-52
2022/03/24 01:05:01;;;;;;;;;;;;;;;18.22;54.77;99746.47;2091215;28;19928;-52
2022/03/24 01:06:03;;;;;;;;;;;;;;;18.22;54.91;99749.16;2091920;28;19928;-50
2022/03/24 01:07:05;;;;;;;;;;;;;;;18.22;54.75;99749.16;2091792;28;20905;-53
2022/03/24 01:08:08;;;;;;;;;;;;;;;18.22;54.97;99743.78;2092646;28;19924;-55
2022/03/24 01:09:09;;;;;;;;;;;;;;;18.21;54.77;99742.13;2091112;28;19931;-51
2022/03/24 01:10:11;;;;;;;;;;;;;;;18.20;54.86;99751.19;2090964;28;20417;-58
2022/03/24 01:11:12;;;;;;;;;;;;;;;18.20;54.91;99745.81;2086406;28;19924;-51
2022/03/24 01:12:14;;;;;;;;;;;;;;;18.19;55.05;99738.75;2091872;28;19924;-52
2022/03/24 01:13:15;;;;;;;;;;;;;;;18.18;54.65;99740.63;2089990;28;20011;-53
2022/03/24 01:14:17;;;;;;;;;;;;;;;18.17;54.77;99740.81;2091781;28;20014;-54
2022/03/24 01:15:19;;;;;;;;;;;;;;;18.18;55.05;99747.84;2092572;28;20346;-56
2022/03/24 01:16:21;;;;;;;;;;;;;;;18.17;55.05;99743.50;2092169;28;19921;-52
2022/03/24 01:17:23;;;;;;;;;;;;;;;18.18;54.76;99743.28;2089154;28;19920;-56
2022/03/24 01:18:24;;;;;;;;;;;;;;;18.17;54.79;99743.50;2093192;28;20459;-56
2022/03/24 01:19:28;;;;;;;;;;;;;;;18.15;54.77;99738.28;2091660;28;19958;-55
2022/03/24 01:20:30;;;;;;;;;;;;;;;18.15;55.00;99742.81;2089740;28;19931;-52
2022/03/24 01:21:31;;;;;;;;;;;;;;;18.14;54.92;99741.16;2091555;28;20383;-54
2022/03/24 01:22:33;;;;;;;;;;;;;;;18.14;54.99;99743.84;2091924;28;20298;-56
2022/03/24 01:23:35;;;;;;;;;;;;;;;18.13;54.89;99737.59;2091671;28;19943;-56
2022/03/24 01:24:38;;;;;;;;;;;;;;;18.12;55.13;99738.63;2091067;28;19924;-52
2022/03/24 01:25:41;;;;;;;;;;;;;;;18.12;54.92;99735.94;2091369;28;19920;-54
2022/03/24 01:26:42;;;;;;;;;;;;;;;18.12;54.83;99737.81;2092222;28;19924;-55
2022/03/24 01:27:44;;;;;;;;;;;;;;;18.10;54.92;99735.28;2092238;28;19924;-53
2022/03/24 01:28:45;;;;;;;;;;;;;;;18.09;54.88;99739.81;2090132;28;19990;-53
2022/03/24 01:29:46;;;;;;;;;;;;;;;18.08;54.96;99738.16;2089809;28;20369;-53
2022/03/24 01:30:47;;;;;;;;;;;;;;;18.08;54.80;99738.16;2089895;28;20003;-52
2022/03/24 01:31:48;;;;;;;;;;;;;;;18.08;54.98;99734.63;2092036;28;20391;-54
2022/03/24 01:32:49;;;;;;;;;;;;;;;18.07;55.18;99736.44;2092047;28;19921;-54
2022/03/24 01:33:50;;;;;;;;;;;;;;;18.06;55.05;99734.78;2091394;28;19920;-55
2022/03/24 01:34:51;;;;;;;;;;;;;;;18.06;54.94;99734.78;2090666;28;19929;-53
2022/03/24 01:35:53;;;;;;;;;;;;;;;18.06;55.07;99736.66;2091959;28;20269;-51
2022/03/24 01:36:53;;;;;;;;;;;;;;;18.06;55.09;99734.78;2091997;28;19947;-53
2022/03/24 01:37:56;;;;;;;;;;;;;;;18.05;55.17;99732.25;2093822;28;19968;-56
2022/03/24 01:38:57;;;;;;;;;;;;;;;18.05;55.23;99733.13;2091291;28;20038;-50
2022/03/24 01:39:58;;;;;;;;;;;;;;;18.05;55.04;99734.94;2091357;28;19933;-55
2022/03/24 01:40:59;;;;;;;;;;;;;;;18.04;54.85;99735.97;2090662;28;20466;-51
2022/03/24 01:42:01;;;;;;;;;;;;;;;18.03;55.01;99729.78;2091056;28;19928;-54
2022/03/24 01:43:02;;;;;;;;;;;;;;;18.02;55.10;99725.41;2092128;28;19978;-52
2022/03/24 01:44:04;;;;;;;;;;;;;;;18.01;54.96;99731.78;2092736;28;20351;-53
2022/03/24 01:45:06;;;;;;;;;;;;;;;18.02;55.03;99732.63;2092662;28;19928;-50
2022/03/24 01:46:07;;;;;;;;;;;;;;;18.00;55.08;99722.06;2093370;28;19920;-50
2022/03/24 01:47:09;;;;;;;;;;;;;;;17.99;55.02;99725.75;2092585;28;19927;-55
2022/03/24 01:48:11;;;;;;;;;;;;;;;18.00;55.20;99724.75;2091626;28;19924;-53
2022/03/24 01:49:12;;;;;;;;;;;;;;;17.99;55.30;99725.75;2092619;28;19955;-53
2022/03/24 01:50:14;;;;;;;;;;;;;;;17.98;54.96;99726.75;2093129;28;19982;-49
2022/03/24 01:51:15;;;;;;;;;;;;;;;17.99;54.85;99727.59;2092910;28;19927;-52
2022/03/24 01:52:18;;;;;;;;;;;;;;;17.98;54.98;99726.75;2093738;28;19928;-53
2022/03/24 01:53:20;;;;;;;;;;;;;;;17.99;55.00;99730.28;2092378;28;20007;-56
2022/03/24 01:54:22;;;;;;;;;;;;;;;17.97;54.99;99734.97;2092209;28;19920;-52
2022/03/24 01:55:24;;;;;;;;;;;;;;;17.96;54.91;99731.47;2091430;28;19927;-56
2022/03/24 01:56:25;;;;;;;;;;;;;;;17.95;54.99;99727.13;2090573;28;20436;-55
2022/03/24 01:57:27;;;;;;;;;;;;;;;17.94;55.09;99728.13;2092317;28;19927;-51
2022/03/24 01:58:29;;;;;;;;;;;;;;;17.94;55.27;99722.75;2093081;28;19986;-50
2022/03/24 01:59:30;;;;;;;;;;;;;;;17.94;55.11;99725.44;2091803;28;19931;-56
2022/03/24 02:00:31;;;;;;;;;;;;;;;17.94;55.25;99721.91;2092505;28;20504;-56
2022/03/24 02:01:35;;;;;;;;;;;;;;;17.93;54.95;99723.75;2092695;28;19935;-53
2022/03/24 02:02:37;;;;;;;;;;;;;;;17.93;55.17;99717.56;2094499;28;19966;-52
2022/03/24 02:03:39;;;;;;;;;;;;;;;17.94;55.25;99721.91;2093683;28;19924;-53
2022/03/24 02:04:40;;;;;;;;;;;;;;;17.92;55.05;99724.78;2091172;28;19967;-55
2022/03/24 02:05:42;;;;;;;;;;;;;;;17.91;55.09;99717.72;2093957;28;19930;-56
2022/03/24 02:06:43;;;;;;;;;;;;;;;17.92;54.93;99722.09;2094059;28;19951;-57
2022/03/24 02:07:44;;;;;;;;;;;;;;;17.91;55.06;99719.56;2093718;28;19924;-56
2022/03/24 02:08:46;;;;;;;;;;;;;;;17.91;55.03;99720.41;2094744;28;19924;-53
2022/03/24 02:09:54;;;;;;;;;;;;;;;17.89;55.14;99722.44;2094085;28;20536;-53
2022/03/24 02:10:54;;;;;;;;;;;;;;;17.89;55.16;99717.06;2093805;28;20011;-52
2022/03/24 02:11:56;;;;;;;;;;;;;;;17.88;55.20;99718.06;2094144;28;19924;-52
2022/03/24 02:12:56;;;;;;;;;;;;;;;17.89;55.16;99716.25;2093552;28;20061;-52
2022/03/24 02:13:58;;;;;;;;;;;;;;;17.87;55.09;99713.72;2090143;28;19932;-53
2022/03/24 02:14:59;;;;;;;;;;;;;;;17.88;55.14;99714.53;2090159;28;19931;-51
2022/03/24 02:16:01;;;;;;;;;;;;;;;17.86;55.09;99720.09;2086059;28;19921;-52
2022/03/24 02:17:02;;;;;;;;;;;;;;;17.85;55.17;99721.94;2094564;28;20031;-51
2022/03/24 02:18:03;;;;;;;;;;;;;;;17.84;55.16;99720.25;2093777;28;19920;-52
2022/03/24 02:19:11;;;;;;;;;;;;;;;17.84;55.30;99719.44;2093645;28;19924;-56
2022/03/24 02:20:12;;;;;;;;;;;;;;;17.84;55.18;99714.06;2093326;28;19921;-54
2022/03/24 02:21:14;;;;;;;;;;;;;;;17.83;55.27;99717.78;2091261;28;21090;-51
2022/03/24 02:22:17;;;;;;;;;;;;;;;17.82;55.20;99719.59;2094269;28;19936;-55
2022/03/24 02:23:18;;;;;;;;;;;;;;;17.81;55.40;99719.78;2094310;28;19977;-55
2022/03/24 02:24:20;;;;;;;;;;;;;;;17.81;55.02;99723.28;2093047;28;19932;-51
2022/03/24 02:25:22;;;;;;;;;;;;;;;17.81;55.35;99717.09;2093855;28;19920;-53
2022/03/24 02:26:24;;;;;;;;;;;;;;;17.79;55.22;99711.06;2092879;28;19957;-52
2022/03/24 02:27:24;;;;;;;;;;;;;;;17.81;55.09;99714.41;2094455;28;20007;-56
2022/03/24 02:28:26;;;;;;;;;;;;;;;17.79;55.21;99717.25;2090790;28;19925;-54
2022/03/24 02:29:26;;;;;;;;;;;;;;;17.79;55.32;99716.41;2090832;28;20309;-55
2022/03/24 02:30:29;;;;;;;;;;;;;;;17.78;55.30;99717.41;2092156;28;19986;-52
2022/03/24 02:31:30;;;;;;;;;;;;;;;17.77;55.02;99713.03;2092824;28;19920;-54
2022/03/24 02:32:34;;;;;;;;;;;;;;;17.78;55.31;99714.72;2091826;28;20617;-56
2022/03/24 02:33:36;;;;;;;;;;;;;;;17.77;55.10;99710.34;2091587;28;19924;-53
2022/03/24 02:34:37;;;;;;;;;;;;;;;17.76;55.22;99711.38;2092170;28;19920;-54
2022/03/24 02:35:39;;;;;;;;;;;;;;;17.74;55.34;99716.88;2092048;28;19935;-55
2022/03/24 02:36:39;;;;;;;;;;;;;;;17.74;55.14;99710.69;2091017;28;20511;-54
2022/03/24 02:37:43;;;;;;;;;;;;;;;17.75;55.56;99709.72;2090431;28;19926;-52
2022/03/24 02:38:44;;;;;;;;;;;;;;;17.77;55.52;99713.03;2091519;28;20043;-53
2022/03/24 02:39:46;;;;;;;;;;;;;;;17.74;55.51;99710.69;2092247;28;19932;-54
2022/03/24 02:40:47;;;;;;;;;;;;;;;17.72;55.47;99702.84;2092147;28;19924;-52
2022/03/24 02:41:49;;;;;;;;;;;;;;;17.73;55.44;99712.53;2094390;28;19928;-51
2022/03/24 02:42:51;;;;;;;;;;;;;;;17.72;55.57;99704.66;2092994;28;19925;-53
2022/03/24 02:43:51;;;;;;;;;;;;;;;17.72;55.33;99710.03;2093689;28;20413;-55
2022/03/24 02:44:54;;;;;;;;;;;;;;;17.73;55.75;99711.72;2090105;28;19925;-51
2022/03/24 02:45:54;;;;;;;;;;;;;;;17.70;55.33;99717.44;2088626;28;19931;-55
2022/03/24 02:46:56;;;;;;;;;;;;;;;17.69;55.41;99710.38;2092404;28;19959;-55
2022/03/24 02:47:58;;;;;;;;;;;;;;;17.70;55.32;99720.13;2092064;28;19931;-53
2022/03/24 02:48:58;;;;;;;;;;;;;;;17.70;55.40;99709.38;2091469;28;19951;-53
2022/03/24 02:50:00;;;;;;;;;;;;;;;17.69;55.57;99713.91;2094115;28;19921;-52
2022/03/24 02:51:03;;;;;;;;;;;;;;;17.68;55.61;99706.84;2092713;28;19924;-53
2022/03/24 02:52:06;;;;;;;;;;;;;;;17.69;55.61;99715.72;2092211;28;19963;-52
2022/03/24 02:53:09;;;;;;;;;;;;;;;17.69;55.66;99715.72;2093479;28;19931;-51
2022/03/24 02:54:11;;;;;;;;;;;;;;;17.68;55.41;99714.06;2092427;28;19951;-51
2022/03/24 02:55:12;;;;;;;;;;;;;;;17.67;55.64;99709.72;2087895;28;19936;-55
2022/03/24 02:56:13;;;;;;;;;;;;;;;17.67;55.36;99707.88;2092151;28;19924;-51
2022/03/24 02:57:15;;;;;;;;;;;;;;;17.65;55.71;99708.03;2091816;28;20023;-53
2022/03/24 02:58:15;;;;;;;;;;;;;;;17.66;55.27;99716.91;2092790;28;19971;-51
2022/03/24 02:59:17;;;;;;;;;;;;;;;17.64;55.39;99714.41;2093085;28;20102;-55
2022/03/24 03:00:18;;;;;;;;;;;;;;;17.65;55.27;99724.13;2091914;28;20720;-51
2022/03/24 03:01:20;;;;;;;;;;;;;;;17.63;55.66;99712.75;2092080;28;20377;-55
2022/03/24 03:02:22;;;;;;;;;;;;;;;17.63;55.55;99714.56;2089471;28;19966;-54
2022/03/24 03:03:24;;;;;;;;;;;;;;;17.63;55.55;99711.88;2091194;28;19920;-54
2022/03/24 03:04:25;;;;;;;;;;;;;;;17.62;55.66;99716.41;2091748;28;19920;-53
2022/03/24 03:05:27;;;;;;;;;;;;;;;17.62;55.49;99716.41;2091484;28;20039;-55
2022/03/24 03:06:27;;;;;;;;;;;;;;;17.63;55.54;99718.13;2092439;28;20008;-52
2022/03/24 03:07:29;;;;;;;;;;;;;;;17.62;55.53;99711.06;2092472;28;19951;-53
2022/03/24 03:08:31;;;;;;;;;;;;;;;17.63;55.69;99718.13;2092013;28;19939;-54
2022/03/24 03:09:33;;;;;;;;;;;;;;;17.62;55.46;99716.41;2091518;28;19921;-50
2022/03/24 03:10:34;;;;;;;;;;;;;;;17.62;55.40;99716.41;2092019;28;19927;-51
2022/03/24 03:11:38;;;;;;;;;;;;;;;17.61;55.37;99720.13;2092404;28;19939;-51
2022/03/24 03:12:44;;;;;;;;;;;;;;;17.60;55.44;99713.06;2088769;28;19943;-51
2022/03/24 03:13:45;;;;;;;;;;;;;;;17.61;55.57;99714.75;2090879;28;20549;-52
2022/03/24 03:14:47;;;;;;;;;;;;;;;17.60;55.67;99718.44;2091684;28;20455;-55
2022/03/24 03:15:48;;;;;;;;;;;;;;;17.60;55.55;99718.44;2092277;28;20072;-53
2022/03/24 03:16:50;;;;;;;;;;;;;;;17.59;55.52;99722.13;2092423;28;20573;-53
2022/03/24 03:17:50;;;;;;;;;;;;;;;17.58;55.66;99725.84;2089423;28;20439;-53
2022/03/24 03:18:52;;;;;;;;;;;;;;;17.59;55.50;99722.13;2091067;28;19977;-52
2022/03/24 03:19:53;;;;;;;;;;;;;;;17.57;55.45;99718.78;2092455;28;19921;-51
2022/03/24 03:20:54;;;;;;;;;;;;;;;17.58;55.41;99719.63;2088341;28;19924;-51
2022/03/24 03:21:55;;;;;;;;;;;;;;;17.58;55.56;99723.16;2092463;28;19920;-54
2022/03/24 03:22:57;;;;;;;;;;;;;;;17.58;55.74;99725.00;2079963;28;19928;-55
2022/03/24 03:23:59;;;;;;;;;;;;;;;17.57;55.52;99723.31;2091907;28;19920;-52
2022/03/24 03:25:00;;;;;;;;;;;;;;;17.57;55.51;99718.78;2091654;28;19924;-53
2022/03/24 03:26:01;;;;;;;;;;;;;;;17.56;55.72;99722.47;2091003;28;19920;-51
2022/03/24 03:27:04;;;;;;;;;;;;;;;17.55;55.56;99723.50;2091462;28;20552;-52
2022/03/24 03:28:07;;;;;;;;;;;;;;;17.55;55.61;99719.94;2093478;28;19928;-52
2022/03/24 03:29:10;;;;;;;;;;;;;;;17.55;55.82;99719.94;2092696;28;19920;-51
2022/03/24 03:30:12;;;;;;;;;;;;;;;17.55;55.78;99725.31;2093998;28;20019;-51
2022/03/24 03:31:13;;;;;;;;;;;;;;;17.54;55.40;99715.59;2090785;28;20590;-52
2022/03/24 03:32:15;;;;;;;;;;;;;;;17.53;55.79;99720.13;2094131;28;20370;-53
2022/03/24 03:33:15;;;;;;;;;;;;;;;17.53;55.75;99722.81;2093344;28;19928;-51
2022/03/24 03:34:17;;;;;;;;;;;;;;;17.54;55.69;99720.97;2094029;28;20424;-53
2022/03/24 03:35:18;;;;;;;;;;;;;;;17.53;55.73;99722.00;2093606;28;19968;-54
2022/03/24 03:36:20;;;;;;;;;;;;;;;17.54;55.79;99731.69;2094173;28;20004;-55
2022/03/24 03:37:22;;;;;;;;;;;;;;;17.53;55.73;99732.72;2093454;28;19927;-51
2022/03/24 03:38:22;;;;;;;;;;;;;;;17.53;55.63;99730.03;2092291;28;19921;-54
2022/03/24 03:39:25;;;;;;;;;;;;;;;17.52;55.63;99731.84;2093181;28;20370;-54
2022/03/24 03:40:26;;;;;;;;;;;;;;;17.52;55.54;99725.66;2094309;28;19991;-53
2022/03/24 03:41:28;;;;;;;;;;;;;;;17.51;55.64;99724.81;2093736;28;20523;-52
2022/03/24 03:42:29;;;;;;;;;;;;;;;17.52;55.66;99728.34;2094140;28;20006;-52
2022/03/24 03:43:30;;;;;;;;;;;;;;;17.50;55.62;99733.06;2093637;28;20010;-52
2022/03/24 03:44:31;;;;;;;;;;;;;;;17.50;55.61;99727.69;2093507;28;19929;-54
2022/03/24 03:45:32;;;;;;;;;;;;;;;17.49;55.79;99726.00;2093079;28;19927;-53
2022/03/24 03:46:33;;;;;;;;;;;;;;;17.49;55.74;99737.56;2091627;28;19924;-53
2022/03/24 03:47:35;;;;;;;;;;;;;;;17.49;55.52;99726.84;2093350;28;19963;-55
2022/03/24 03:48:36;;;;;;;;;;;;;;;17.48;55.67;99725.16;2093895;28;20539;-55
2022/03/24 03:49:37;;;;;;;;;;;;;;;17.48;55.67;99727.84;2093221;28;19920;-53
2022/03/24 03:50:40;;;;;;;;;;;;;;;17.48;55.71;99727.84;2093895;28;19920;-52
2022/03/24 03:51:41;;;;;;;;;;;;;;;17.47;55.53;99728.00;2093662;28;19928;-53
2022/03/24 03:52:42;;;;;;;;;;;;;;;17.47;55.78;99730.69;2093855;28;19920;-55
2022/03/24 03:53:43;;;;;;;;;;;;;;;17.45;55.45;99728.19;2093041;28;19951;-51
2022/03/24 03:54:47;;;;;;;;;;;;;;;17.44;55.81;99726.53;2091262;28;19931;-52
2022/03/24 03:55:48;;;;;;;;;;;;;;;17.44;55.44;99729.22;2092982;28;19955;-55
2022/03/24 03:56:49;;;;;;;;;;;;;;;17.44;55.70;99731.91;2093627;28;19972;-52
2022/03/24 03:57:50;;;;;;;;;;;;;;;17.42;55.60;99724.00;2093962;28;20321;-54
2022/03/24 03:58:51;;;;;;;;;;;;;;;17.41;55.65;99729.53;2093009;28;19929;-55
2022/03/24 03:59:53;;;;;;;;;;;;;;;17.42;55.61;99726.69;2092693;28;20399;-53
2022/03/24 04:00:55;;;;;;;;;;;;;;;17.41;55.74;99722.34;2093300;28;20003;-54
2022/03/24 04:01:58;;;;;;;;;;;;;;;17.42;55.62;99736.59;2091303;28;19928;-52
2022/03/24 04:02:58;;;;;;;;;;;;;;;17.41;55.70;99726.84;2092932;28;19959;-54
2022/03/24 04:04:00;;;;;;;;;;;;;;;17.41;55.74;99725.03;2088876;28;19936;-55
2022/03/24 04:05:00;;;;;;;;;;;;;;;17.40;55.55;99719.81;2086427;28;19920;-52
2022/03/24 04:06:04;;;;;;;;;;;;;;;17.39;55.83;99723.50;2084537;28;20457;-54
2022/03/24 04:07:06;;;;;;;;;;;;;;;17.39;55.50;99720.84;2092940;28;20044;-52
2022/03/24 04:08:09;;;;;;;;;;;;;;;17.38;55.81;99719.13;2092991;28;20361;-53
2022/03/24 04:09:10;;;;;;;;;;;;;;;17.38;55.52;99724.50;2092792;28;19920;-55
2022/03/24 04:10:12;;;;;;;;;;;;;;;17.37;55.65;99722.84;2093037;28;20255;-52
2022/03/24 04:11:14;;;;;;;;;;;;;;;17.37;55.36;99722.84;2092890;28;19920;-53
2022/03/24 04:12:15;;;;;;;;;;;;;;;17.35;55.62;99720.31;2093019;28;20784;-52
2022/03/24 04:13:16;;;;;;;;;;;;;;;17.37;55.56;99722.84;2091644;28;19928;-54
2022/03/24 04:14:18;;;;;;;;;;;;;;;17.37;55.73;99722.84;2092970;28;20713;-51
2022/03/24 04:15:18;;;;;;;;;;;;;;;17.34;55.65;99715.97;2093075;28;20010;-52
2022/03/24 04:16:20;;;;;;;;;;;;;;;17.35;55.38;99724.84;2093701;28;19953;-51
2022/03/24 04:17:21;;;;;;;;;;;;;;;17.33;55.68;99732.25;2093766;28;20065;-51
2022/03/24 04:18:23;;;;;;;;;;;;;;;17.33;55.67;99725.03;2093367;28;19932;-53
2022/03/24 04:19:25;;;;;;;;;;;;;;;17.33;55.46;99721.50;2093335;28;19924;-54
2022/03/24 04:20:26;;;;;;;;;;;;;;;17.33;55.70;99724.19;2093031;28;20282;-53
2022/03/24 04:21:27;;;;;;;;;;;;;;;17.33;55.68;99722.34;2093541;28;19924;-51
2022/03/24 04:22:29;;;;;;;;;;;;;;;17.30;55.42;99722.69;2091890;28;19921;-55
2022/03/24 04:23:29;;;;;;;;;;;;;;;17.31;55.55;99723.53;2091244;28;19924;-51
2022/03/24 04:24:31;;;;;;;;;;;;;;;17.33;55.33;99729.56;2092962;28;19925;-53
2022/03/24 04:25:34;;;;;;;;;;;;;;;17.31;55.41;99728.88;2090674;28;19978;-54
2022/03/24 04:26:35;;;;;;;;;;;;;;;17.30;55.72;99716.47;2093501;28;20458;-52
2022/03/24 04:27:36;;;;;;;;;;;;;;;17.28;55.49;99715.81;2092519;28;19921;-53
2022/03/24 04:28:37;;;;;;;;;;;;;;;17.29;55.60;99721.00;2093015;28;19924;-52
2022/03/24 04:29:38;;;;;;;;;;;;;;;17.29;55.55;99728.19;2090530;28;20560;-54
2022/03/24 04:30:40;;;;;;;;;;;;;;;17.27;55.58;99720.31;2093558;28;19930;-55
2022/03/24 04:31:40;;;;;;;;;;;;;;;17.29;55.78;99725.53;2092972;28;19924;-51
2022/03/24 04:32:42;;;;;;;;;;;;;;;17.28;55.46;99726.53;2093544;28;19927;-52
2022/03/24 04:33:44;;;;;;;;;;;;;;;17.27;55.80;99719.47;2092929;28;19924;-55
2022/03/24 04:34:45;;;;;;;;;;;;;;;17.27;55.33;99727.53;2093201;28;19920;-51
2022/03/24 04:35:47;;;;;;;;;;;;;;;17.24;55.76;99725.19;2090566;28;19931;-54
2022/03/24 04:36:48;;;;;;;;;;;;;;;17.27;55.90;99724.84;2093545;28;19926;-55
2022/03/24 04:37:50;;;;;;;;;;;;;;;17.25;55.61;99724.19;2092137;28;19925;-52
2022/03/24 04:38:51;;;;;;;;;;;;;;;17.22;55.58;99725.38;2093379;28;19927;-55
2022/03/24 04:39:52;;;;;;;;;;;;;;;17.23;55.59;99726.19;2092642;28;19927;-55
2022/03/24 04:40:55;;;;;;;;;;;;;;;17.25;55.71;99724.19;2092418;28;19967;-51
2022/03/24 04:41:55;;;;;;;;;;;;;;;17.23;55.52;99724.34;2079773;28;20203;-55
2022/03/24 04:42:57;;;;;;;;;;;;;;;17.24;55.50;99727.88;2085630;28;19924;-54
2022/03/24 04:43:58;;;;;;;;;;;;;;;17.19;55.46;99721.19;2082096;28;19928;-54
2022/03/24 04:45:00;;;;;;;;;;;;;;;17.16;55.72;99724.19;2085160;28;20468;-53
2022/03/24 04:46:02;;;;;;;;;;;;;;;17.17;55.71;99723.19;2084932;28;19971;-53
2022/03/24 04:47:03;;;;;;;;;;;;;;;17.20;55.65;99730.06;2085612;28;19931;-51
2022/03/24 04:48:05;;;;;;;;;;;;;;;17.19;55.63;99725.72;2085185;28;19928;-52
2022/03/24 04:49:05;;;;;;;;;;;;;;;17.15;55.56;99725.19;2084742;28;19964;-51
2022/03/24 04:50:08;;;;;;;;;;;;;;;17.17;55.59;99722.34;2084102;28;19927;-55
2022/03/24 04:51:09;;;;;;;;;;;;;;;17.15;55.60;99719.81;2085278;28;20019;-54
2022/03/24 04:52:10;;;;;;;;;;;;;;;17.16;55.56;99724.19;2082498;28;20476;-52
2022/03/24 04:53:14;;;;;;;;;;;;;;;17.17;55.63;99717.81;2085589;28;19924;-51
2022/03/24 04:54:14;;;;;;;;;;;;;;;17.15;55.49;99722.50;2083958;28;19932;-51
2022/03/24 04:55:16;;;;;;;;;;;;;;;17.13;55.75;99721.00;2084611;28;20052;-51
2022/03/24 04:56:18;;;;;;;;;;;;;;;17.11;55.74;99723.84;2083842;28;19929;-52
2022/03/24 04:57:20;;;;;;;;;;;;;;;17.13;55.69;99723.66;2084369;28;19920;-53
2022/03/24 04:58:21;;;;;;;;;;;;;;;17.12;55.58;99720.16;2084698;28;19932;-51
2022/03/24 04:59:22;;;;;;;;;;;;;;;17.12;55.73;99719.31;2084852;28;19920;-53
2022/03/24 05:00:23;;;;;;;;;;;;;;;17.11;55.58;99723.03;2084833;28;20744;-52
2022/03/24 05:01:24;;;;;;;;;;;;;;;17.10;55.73;99730.19;2083027;28;19929;-54
2022/03/24 05:02:25;;;;;;;;;;;;;;;17.09;55.69;99731.22;2085128;28;19929;-53
2022/03/24 05:03:28;;;;;;;;;;;;;;;17.09;55.74;99722.34;2085395;28;19921;-52
2022/03/24 05:04:28;;;;;;;;;;;;;;;17.10;55.70;99726.69;2084501;28;20314;-54
2022/03/24 05:05:30;;;;;;;;;;;;;;;17.10;55.61;99734.72;2084905;28;19921;-52
2022/03/24 05:06:31;;;;;;;;;;;;;;;17.10;55.79;99730.19;2084627;28;19925;-52
2022/03/24 05:07:33;;;;;;;;;;;;;;;17.12;55.82;99727.38;2084979;28;19920;-54
2022/03/24 05:08:34;;;;;;;;;;;;;;;17.13;55.63;99721.84;2082810;28;19932;-54
2022/03/24 05:09:35;;;;;;;;;;;;;;;17.13;55.93;99727.22;2083963;28;19920;-54
2022/03/24 05:10:36;;;;;;;;;;;;;;;17.19;55.95;99731.06;2083891;28;19975;-50
2022/03/24 05:11:38;;;;;;;;;;;;;;;17.22;55.37;99730.72;2084804;28;19925;-52
2022/03/24 05:12:41;;;;;;;;;;;;;;;17.24;55.37;99727.88;2084616;28;19931;-53
2022/03/24 05:13:41;;;;;;;;;;;;;;;17.27;55.32;99732.88;2084698;28;19921;-51
2022/03/24 05:14:44;;;;;;;;;;;;;;;17.30;55.09;99732.56;2083735;28;19927;-53
2022/03/24 05:15:45;;;;;;;;;;;;;;;17.34;55.16;99726.69;2084639;28;20490;-52
2022/03/24 05:16:46;;;;;;;;;;;;;;;17.37;55.10;99734.41;2084600;28;19932;-51
2022/03/24 05:17:47;;;;;;;;;;;;;;;17.40;55.18;99725.19;2082163;28;20595;-54
2022/03/24 05:18:48;;;;;;;;;;;;;;;17.43;55.32;99735.56;2084271;28;19921;-53
2022/03/24 05:19:50;;;;;;;;;;;;;;;17.47;55.12;99733.38;2083626;28;20424;-53
2022/03/24 05:20:51;;;;;;;;;;;;;;;17.51;55.00;99735.56;2080404;28;19974;-54